Terminal Aerodrome Forecast
Issued by NWS

Current Version | Previous Version | Text Only | Print | Product List | Glossary On
Versions: 1 2 3 4 5 6 7 8 9 10 11 12 13 14 15 16
000
FTUS41 KLWX 271738
TAFMTN
TAF
KMTN 271738Z 2718/2818 VRB04KT P6SM OVC020
     FM272000 VRB04KT P6SM VCTS BKN025CB
     FM280400 VRB04KT P6SM FEW050 SCT250
     FM280800 VRB04KT 6SM BR FEW050 SCT250
     FM280900 VRB03KT 4SM BR FEW050 SCT250
     FM281300 00000KT P6SM SCT250=

USA.gov is the U.S. government's official web portal to all federal, state and local government web resources and services.